Share

Adams, OK

Bozarth Farm 3.5E Liberal (KKSLIBER6) Elev 2785 ft | 37.02 °N, 100.86 °W | Change Station

Current weather conditions updated 14 minutes ago

Clear
Clear
52.0 °F
Feels Like 52.0 °F
N
18.0
Wind Variable Wind from SSW
Gusts 22.0 mph
Sunrise 7:05 AM
Sunset 8:22 PM
Moon Waning Gibbous

Today is forecast to be Much Warmer than yesterday. Chance of late night showers tonight.

Pressure 30.05 in
Visibility 10.0 miles
Clouds Clear
Dew Point 46 °F
Humidity 79%
Rainfall 0.00 in
Snow Depth Not available.
UV 0 out of 16
Pollen 11.00 out of 12
Air Quality Not available.
Flu Activity Regional
METAR KPYX 191055Z AUTO 18014G18KT 10SM CLR 12/08 A3005 RMK AO2 T01150077

More Conditions Fewer Conditions

Pressure 30.05 in
Visibility 10.0 miles
Clouds Clear
Dew Point 46 °F
Humidity 79%
Rainfall 0.00 in
Snow Depth Not available.
UV 0 out of 16
Pollen 11.00 out of 12
Air Quality Not available.
Flu Activity Regional
METAR KPYX 191055Z AUTO 18014G18KT 10SM CLR 12/08 A3005 RMK AO2 T01150077

More Conditions Fewer Conditions

10-Day Weather Forecast

Almanac

Astronomy

Apr. 19, 2014 Rise Set
Actual Time 7:05 AM CDT 8:22 PM CDT
Civil Twilight 6:38 AM CDT 8:49 PM CDT
Nautical Twilight 6:06 AM CDT 9:22 PM CDT
Astronomical Twilight 5:32 AM CDT 9:55 PM CDT
Moon 12:05 AM CDT 10:29 AM CDT
Length of Visible Light 14h 11m
Length of Day
13h 17m
Tomorrow will be 2m 12s longer.
Waning Gibbous, 80% of the Moon is Illuminated
Today
Waning Gibbous
Apr 22
Last Quarter
Apr 29
New
May 6
First Quarter
May 14
Full

Today's Extremes

State Highs State Lows

Community

  • Bleeding Hearts
    Bleeding Hearts
  • Sunset Silhouettes
    Sunset Silhouettes
  • FL sunset Perico Isle
    FL sunset Perico Isle
  • Cloudy spring view
    Cloudy spring view
  • Old barn
    Old barn

WunderPhotos

Upload Photos

1,702,682 photos uploaded!

WunderBlogs® & News

Nearby

Snow Depth

Station Depth Elevation
No new snow has been reported.

Coastal Water Temperatures

Place Temperature
No Stations Reporting

Earthquake Activity

City Distance Mag. Time & Date
No recent earthquake activity has been reported nearby.
Minimum magnitude displayed is 2.5.

Nearby Weather Stations

Station Location Temp. Dew Point Humidity Wind Precip. Elev Updated Type
MesoWest HOOKER , Adams, OK 51 °F - - North  at  - 0.00 in / hr 2961 ft 4:20 AM CDT MADIS
MesoWest OPTIMA , Guymon, OK 54 °F - - North  at  - 0.00 in / hr 2956 ft 5:10 AM CDT MADIS
MesoWest LIBERL , Liberal, KS 50 °F - - North  at  - 0.00 in / hr 2886 ft 4:35 AM CDT MADIS
Bozarth Farm 3.5E Liberal, Liberal, KS 52.0 °F 46 °F 79% SSW  at  18.0 mph 0.00 in / hr 2785 ft 5:52 AM CDT Normal

Show More Stations Show Fewer Stations

What do you think?

We're not finished. Please let us know what you like, what you don't like, and what you are still missing.